Time;durP1;ratioP1;P1;durP2;ratioP2;P2;SDS_P1;SDS_P2;PMS_P1;PMS_P2;Temp;Humidity;BMP_temperature;BMP_pressure;BME280_temperature;BME280_humidity;BME280_pressure;Samples;Min_cycle;Max_cycle;Signal;HPM_P1;HPM_P2
2022/07/29 07:06:11;;;;;;;1.50;1.00;;;;;;;;;;12894070;22;1712216;-85
2022/07/29 07:11:12;;;;;;;1.92;1.05;;;;;;;;;;12914864;23;20013;-84
2022/07/29 07:16:15;;;;;;;3.00;1.40;;;;;;;;;;12915602;23;20355;-84
2022/07/29 07:21:16;;;;;;;3.35;1.20;;;;;;;;;;12916541;23;20015;-82
2022/07/29 07:26:19;;;;;;;3.03;1.63;;;;;;;;;;12913784;23;20004;-83
2022/07/29 07:31:20;;;;;;;2.63;1.40;;;;;;;;;;12912850;23;20004;-82
2022/07/29 07:36:21;;;;;;;2.75;1.60;;;;;;;;;;12913045;23;20427;-83
2022/07/29 07:41:22;;;;;;;3.45;1.92;;;;;;;;;;12913597;23;20078;-83
2022/07/29 07:46:23;;;;;;;4.80;1.80;;;;;;;;;;12913171;23;20038;-84
2022/07/29 07:51:24;;;;;;;4.38;2.10;;;;;;;;;;12917382;23;20000;-85
2022/07/29 07:56:26;;;;;;;3.08;2.00;;;;;;;;;;12915846;23;20004;-82
2022/07/29 08:01:27;;;;;;;5.85;2.38;;;;;;;;;;12913697;23;20000;-82
2022/07/29 08:06:28;;;;;;;6.38;1.90;;;;;;;;;;12915988;23;20035;-83
2022/07/29 08:11:29;;;;;;;4.20;1.67;;;;;;;;;;12918801;23;20000;-82
2022/07/29 08:16:31;;;;;;;4.45;2.40;;;;;;;;;;12952397;23;20011;-81
2022/07/29 08:21:32;;;;;;;6.68;3.00;;;;;;;;;;12930783;23;20032;-82
2022/07/29 08:26:34;;;;;;;5.82;3.15;;;;;;;;;;12925319;23;20008;-82
2022/07/29 08:31:35;;;;;;;4.55;2.60;;;;;;;;;;12924894;23;20001;-83
2022/07/29 08:36:39;;;;;;;4.18;2.47;;;;;;;;;;12946550;23;20000;-83
2022/07/29 08:41:41;;;;;;;5.32;2.33;;;;;;;;;;12920678;23;20018;-83
2022/07/29 08:46:43;;;;;;;3.55;2.05;;;;;;;;;;12932480;23;20069;-84
2022/07/29 08:51:51;;;;;;;4.18;1.98;;;;;;;;;;12914844;23;20004;-83
2022/07/29 08:56:52;;;;;;;4.60;2.10;;;;;;;;;;12914131;23;20004;-84
2022/07/29 09:02:11;;;;;;;6.10;2.92;;;;;;;;;;12946497;23;20059;-84
2022/07/29 09:07:16;;;;;;;5.32;3.53;;;;;;;;;;12947172;23;20042;-84
2022/07/29 09:12:36;;;;;;;5.47;3.00;;;;;;;;;;12915670;23;20019;-84
2022/07/29 09:17:50;;;;;;;5.03;3.10;;;;;;;;;;12940177;23;20448;-84
2022/07/29 09:23:18;;;;;;;6.43;3.22;;;;;;;;;;12915641;23;20052;-84
2022/07/29 09:28:19;;;;;;;3.53;2.45;;;;;;;;;;12898533;23;20016;-84
2022/07/29 09:33:24;;;;;;;4.15;2.88;;;;;;;;;;12921869;23;20039;-83
2022/07/29 09:38:25;;;;;;;4.20;3.22;;;;;;;;;;12922659;23;20011;-85
2022/07/29 09:43:27;;;;;;;6.18;3.17;;;;;;;;;;12949966;23;19996;-84
2022/07/29 09:48:28;;;;;;;4.38;2.75;;;;;;;;;;12925305;23;20100;-83
2022/07/29 09:53:35;;;;;;;4.07;2.38;;;;;;;;;;12924129;23;20432;-83
2022/07/29 09:58:36;;;;;;;4.35;2.35;;;;;;;;;;12926333;23;20018;-82
2022/07/29 10:03:51;;;;;;;5.22;2.28;;;;;;;;;;12928912;23;19992;-84
2022/07/29 10:08:52;;;;;;;4.80;2.55;;;;;;;;;;12922113;23;20058;-83
2022/07/29 10:13:55;;;;;;;5.85;2.88;;;;;;;;;;12925689;23;20016;-83
2022/07/29 10:18:56;;;;;;;5.88;3.20;;;;;;;;;;12900580;23;20016;-83
2022/07/29 10:23:57;;;;;;;4.00;2.80;;;;;;;;;;12922977;23;20062;-83
2022/07/29 10:29:00;;;;;;;4.80;2.70;;;;;;;;;;12955972;23;20005;-83
2022/07/29 10:34:22;;;;;;;5.60;2.92;;;;;;;;;;12925374;23;20011;-85
2022/07/29 10:39:37;;;;;;;3.92;3.10;;;;;;;;;;12952723;23;20011;-84
2022/07/29 10:44:42;;;;;;;6.20;3.28;;;;;;;;;;12944285;22;20008;-85
2022/07/29 10:49:55;;;;;;;4.63;3.30;;;;;;;;;;12923852;23;20016;-81
2022/07/29 10:54:58;;;;;;;5.40;3.08;;;;;;;;;;12744747;23;20013;-81
2022/07/29 11:00:08;;;;;;;3.33;2.67;;;;;;;;;;12717773;23;20438;-81
2022/07/29 11:05:12;;;;;;;4.72;3.10;;;;;;;;;;12683780;23;20085;-81
2022/07/29 11:10:16;;;;;;;6.00;2.85;;;;;;;;;;12683940;23;20014;-81
2022/07/29 11:15:31;;;;;;;5.38;3.13;;;;;;;;;;12685371;23;20033;-82
2022/07/29 11:20:37;;;;;;;5.45;2.78;;;;;;;;;;12684072;23;20009;-82
2022/07/29 11:25:39;;;;;;;3.55;2.53;;;;;;;;;;12685153;23;20057;-82
2022/07/29 11:30:50;;;;;;;5.57;2.85;;;;;;;;;;12684093;23;20032;-82
2022/07/29 11:36:10;;;;;;;3.38;2.60;;;;;;;;;;12683418;23;20002;-82
2022/07/29 11:41:17;;;;;;;6.72;4.43;;;;;;;;;;12690638;23;20013;-83
2022/07/29 11:46:46;;;;;;;5.63;2.50;;;;;;;;;;12726599;23;20017;-81
2022/07/29 11:51:54;;;;;;;4.82;2.80;;;;;;;;;;12664822;23;20026;-82
2022/07/29 11:57:04;;;;;;;5.75;2.58;;;;;;;;;;12657697;23;20498;-81
2022/07/29 12:02:09;;;;;;;7.78;2.67;;;;;;;;;;12680104;23;20006;-82
2022/07/29 12:07:12;;;;;;;4.78;2.47;;;;;;;;;;12679997;23;20449;-82
2022/07/29 12:12:16;;;;;;;6.25;2.53;;;;;;;;;;12682660;23;20042;-83
2022/07/29 12:17:27;;;;;;;4.68;2.45;;;;;;;;;;12682723;23;20051;-82
2022/07/29 12:22:36;;;;;;;5.20;2.45;;;;;;;;;;12685158;23;20029;-82
2022/07/29 12:27:38;;;;;;;5.00;2.33;;;;;;;;;;12686282;23;20013;-81
2022/07/29 12:32:40;;;;;;;6.20;2.60;;;;;;;;;;12685974;23;20347;-83
2022/07/29 12:37:43;;;;;;;4.93;3.75;;;;;;;;;;12683707;23;20037;-84
2022/07/29 12:43:04;;;;;;;4.15;2.67;;;;;;;;;;12685523;23;20009;-83
2022/07/29 12:48:10;;;;;;;7.60;2.80;;;;;;;;;;12697580;23;20119;-83
2022/07/29 12:53:13;;;;;;;4.63;2.78;;;;;;;;;;12689231;23;20422;-82
2022/07/29 12:58:33;;;;;;;5.47;2.58;;;;;;;;;;12688672;23;20005;-82
2022/07/29 13:03:47;;;;;;;6.05;3.30;;;;;;;;;;12689334;23;20021;-83
2022/07/29 13:09:06;;;;;;;7.63;3.05;;;;;;;;;;12686562;23;20097;-84
2022/07/29 13:14:09;;;;;;;9.07;4.10;;;;;;;;;;12688255;23;20005;-82
2022/07/29 13:19:17;;;;;;;4.32;2.65;;;;;;;;;;12684273;23;20098;-82
2022/07/29 13:24:18;;;;;;;7.13;2.67;;;;;;;;;;12682608;23;20041;-82
2022/07/29 13:29:19;;;;;;;7.68;2.22;;;;;;;;;;12684296;23;20009;-82
2022/07/29 13:34:22;;;;;;;4.38;2.95;;;;;;;;;;12681065;23;20017;-83
2022/07/29 13:39:23;;;;;;;4.45;2.65;;;;;;;;;;12681957;23;20001;-82
2022/07/29 13:44:25;;;;;;;4.72;2.40;;;;;;;;;;12679683;23;20016;-82
2022/07/29 13:49:27;;;;;;;6.25;2.67;;;;;;;;;;12682572;23;20149;-81
2022/07/29 13:54:28;;;;;;;7.60;2.30;;;;;;;;;;12686190;23;20014;-83
2022/07/29 13:59:30;;;;;;;6.82;3.05;;;;;;;;;;12682717;23;20434;-83
2022/07/29 14:04:32;;;;;;;7.45;4.22;;;;;;;;;;12682959;23;20002;-82
2022/07/29 14:09:33;;;;;;;4.10;2.53;;;;;;;;;;12684764;23;19998;-83
2022/07/29 14:14:36;;;;;;;4.60;3.10;;;;;;;;;;12684861;23;20427;-83
2022/07/29 14:19:37;;;;;;;3.50;2.40;;;;;;;;;;12684459;23;20016;-82
2022/07/29 14:24:39;;;;;;;5.78;2.70;;;;;;;;;;12696532;23;20006;-82
2022/07/29 14:29:50;;;;;;;9.95;7.55;;;;;;;;;;12688411;23;20056;-82
2022/07/29 14:34:52;;;;;;;4.50;2.80;;;;;;;;;;12688416;23;20025;-82
2022/07/29 14:39:59;;;;;;;5.47;2.72;;;;;;;;;;12663620;23;20069;-81
2022/07/29 14:45:05;;;;;;;4.85;2.80;;;;;;;;;;12685397;23;20006;-80
2022/07/29 14:50:07;;;;;;;7.38;3.63;;;;;;;;;;12688581;23;20009;-82
2022/07/29 14:55:17;;;;;;;5.82;2.80;;;;;;;;;;12688985;23;20006;-84
2022/07/29 15:00:18;;;;;;;5.43;2.80;;;;;;;;;;12691080;23;20006;-82
2022/07/29 15:05:19;;;;;;;6.32;3.17;;;;;;;;;;12695364;23;20013;-82
2022/07/29 15:10:25;;;;;;;5.55;2.88;;;;;;;;;;12689912;23;20020;-84
2022/07/29 15:15:46;;;;;;;6.30;3.33;;;;;;;;;;12695004;23;20005;-84
2022/07/29 15:20:56;;;;;;;4.72;2.80;;;;;;;;;;12689579;23;20025;-84
2022/07/29 15:26:18;;;;;;;4.57;2.83;;;;;;;;;;12688125;23;20077;-83
2022/07/29 15:31:19;;;;;;;5.82;3.08;;;;;;;;;;12688396;23;20077;-83
2022/07/29 15:36:29;;;;;;;4.93;2.53;;;;;;;;;;12690233;23;20009;-84
2022/07/29 15:41:37;;;;;;;;;;;;;;;;;;12672712;23;20045;-84
2022/07/29 15:51:59;;;;;;;3.83;2.60;;;;;;;;;;12688611;23;20362;-82
2022/07/29 15:57:07;;;;;;;5.25;2.35;;;;;;;;;;12686888;23;20010;-84
2022/07/29 16:02:09;;;;;;;6.95;3.10;;;;;;;;;;12686305;23;20034;-83
2022/07/29 16:07:13;;;;;;;4.78;2.90;;;;;;;;;;12668322;23;20009;-83
2022/07/29 16:12:18;;;;;;;5.70;3.28;;;;;;;;;;12683096;23;20006;-84
2022/07/29 16:17:20;;;;;;;7.60;3.20;;;;;;;;;;12685079;23;20391;-85
2022/07/29 16:22:21;;;;;;;5.10;3.03;;;;;;;;;;12686846;23;20029;-82
2022/07/29 16:27:25;;;;;;;6.43;2.60;;;;;;;;;;12687368;23;20006;-81
2022/07/29 16:32:26;;;;;;;8.95;3.30;;;;;;;;;;12692072;23;20366;-81
2022/07/29 16:37:32;;;;;;;4.40;3.05;;;;;;;;;;12687654;23;20425;-80
2022/07/29 16:42:33;;;;;;;9.13;3.50;;;;;;;;;;12709296;23;19996;-80
2022/07/29 16:47:34;;;;;;;6.70;3.47;;;;;;;;;;12734065;23;20002;-81
